createdAt,value
2022-11-21T06:49:36.152Z,4.60
2022-11-21T06:52:37.996Z,4.70
2022-11-21T06:55:39.721Z,4.90
2022-11-21T06:58:43.142Z,5.10
2022-11-21T07:01:46.790Z,5.30
2022-11-21T07:04:49.375Z,5.40
2022-11-21T07:07:52.718Z,5.40
2022-11-21T07:11:23.101Z,5.50
2022-11-21T07:14:19.593Z,5.50
2022-11-21T07:17:23.185Z,5.50
2022-11-21T07:20:25.321Z,5.60
2022-11-21T07:23:28.552Z,5.60
2022-11-21T07:26:31.304Z,5.60
2022-11-21T07:29:33.413Z,5.70
2022-11-21T07:32:35.360Z,5.80
2022-11-21T07:35:37.949Z,5.80
2022-11-21T07:38:42.211Z,5.90
2022-11-21T07:41:44.527Z,5.90
2022-11-21T07:44:46.694Z,6.10
2022-11-21T07:47:49.509Z,6.30
2022-11-21T07:50:51.457Z,6.40
2022-11-21T07:53:53.304Z,6.30
2022-11-21T07:56:55.383Z,6.40
2022-11-21T07:59:57.207Z,6.70
2022-11-21T08:02:59.282Z,7.20
2022-11-21T08:06:04.567Z,7.40
2022-11-21T08:09:06.591Z,7.30
2022-11-21T08:12:09.357Z,7.10
2022-11-21T08:15:12.005Z,7.20
2022-11-21T08:18:19.170Z,7.20
2022-11-21T08:21:21.258Z,7.20
2022-11-21T08:24:23.849Z,7.30
2022-11-21T08:27:25.756Z,7.70
2022-11-21T08:30:27.639Z,8.20
2022-11-21T08:33:31.793Z,8.40
2022-11-21T08:36:34.129Z,8.50
2022-11-21T08:39:36.083Z,8.40
2022-11-21T08:42:38.184Z,8.10
2022-11-21T08:45:39.935Z,7.90
2022-11-21T08:48:42.656Z,7.30
2022-11-21T08:51:49.394Z,7.60
2022-11-21T08:54:52.917Z,7.80
2022-11-21T08:57:55.812Z,7.90
2022-11-21T09:01:01.199Z,9.30
2022-11-21T09:04:05.498Z,11.60
2022-11-21T09:07:19.144Z,13.10
2022-11-21T09:10:22.929Z,13.30
2022-11-21T09:13:26.982Z,12.60
2022-11-21T09:16:52.086Z,13.10
2022-11-21T09:19:55.024Z,13.10
2022-11-21T09:22:58.361Z,14.10
2022-11-21T09:26:01.737Z,13.70
2022-11-21T09:29:06.000Z,13.20
2022-11-21T09:32:09.874Z,13.90
2022-11-21T09:35:13.479Z,14.30
2022-11-21T09:38:19.778Z,14.20
2022-11-21T09:41:52.368Z,12.90
2022-11-21T09:45:19.088Z,11.60
2022-11-21T09:48:34.778Z,12.40
2022-11-21T09:51:39.025Z,13.80
2022-11-21T09:54:48.742Z,14.50
2022-11-21T09:57:51.385Z,13.60
2022-11-21T10:00:54.474Z,12.60
2022-11-21T10:03:57.572Z,11.70
2022-11-21T10:07:10.749Z,11.00
2022-11-21T10:10:52.622Z,10.70
2022-11-21T10:14:24.301Z,11.30
2022-11-21T10:17:59.418Z,11.90
2022-11-21T10:21:27.868Z,11.50
2022-11-21T10:24:43.991Z,12.00
2022-11-21T10:28:03.974Z,12.00
2022-11-21T10:31:11.839Z,11.30
2022-11-21T10:34:22.546Z,10.80
2022-11-21T10:37:35.273Z,10.80
2022-11-21T10:41:17.088Z,10.40
2022-11-21T10:44:54.360Z,10.00
2022-11-21T10:47:57.347Z,11.40
2022-11-21T10:51:39.758Z,12.30
2022-11-21T10:55:05.622Z,12.40
2022-11-21T10:58:18.037Z,13.40
2022-11-21T11:01:37.462Z,13.10
2022-11-21T11:04:47.368Z,13.70
2022-11-21T11:08:13.811Z,14.00
2022-11-21T11:11:20.754Z,13.10
2022-11-21T11:14:31.596Z,13.40
2022-11-21T11:17:34.579Z,13.60
2022-11-21T11:20:42.156Z,13.50
2022-11-21T11:23:44.837Z,12.90
2022-11-21T11:26:48.621Z,12.70
2022-11-21T11:29:53.187Z,12.70
2022-11-21T11:32:55.669Z,12.10
2022-11-21T11:36:14.279Z,11.70
2022-11-21T11:39:39.179Z,11.50
2022-11-21T11:43:28.893Z,11.20
2022-11-21T11:47:12.108Z,11.40
2022-11-21T11:50:30.874Z,11.90
2022-11-21T11:53:39.256Z,11.50
2022-11-21T11:56:43.459Z,11.30
2022-11-21T11:59:51.410Z,10.50
2022-11-21T12:03:19.440Z,10.70
2022-11-21T12:06:43.732Z,10.50
2022-11-21T12:10:04.715Z,10.20
2022-11-21T12:13:12.402Z,10.10
2022-11-21T12:16:15.285Z,10.00
2022-11-21T12:19:17.797Z,10.10
2022-11-21T12:22:19.651Z,10.10
2022-11-21T12:25:27.694Z,10.10
2022-11-21T12:29:01.317Z,9.90
2022-11-21T12:32:22.248Z,10.00
2022-11-21T12:36:16.238Z,10.10
2022-11-21T12:39:45.041Z,10.10
2022-11-21T12:43:04.866Z,10.40
2022-11-21T12:46:32.074Z,10.60
2022-11-21T12:50:09.930Z,10.80
2022-11-21T12:53:47.168Z,11.10
2022-11-21T12:57:12.243Z,10.80
2022-11-21T13:00:26.224Z,11.00
2022-11-21T13:03:52.657Z,11.20
2022-11-21T13:06:58.056Z,11.10
2022-11-21T13:10:02.912Z,10.90
2022-11-21T13:13:17.288Z,10.80
2022-11-21T13:16:36.986Z,10.80
2022-11-21T13:20:05.487Z,10.60
2022-11-21T13:23:42.580Z,10.60
2022-11-21T13:26:51.670Z,10.60
2022-11-21T13:30:11.871Z,10.40
2022-11-21T13:33:35.038Z,10.10
2022-11-21T13:36:39.240Z,9.90
2022-11-21T13:39:41.336Z,10.10
2022-11-21T13:47:04.956Z,9.70
2022-11-21T13:50:31.332Z,9.70
2022-11-21T13:53:57.837Z,9.70
2022-11-21T13:57:40.584Z,9.80
2022-11-21T14:00:59.376Z,9.80
2022-11-21T14:04:33.757Z,10.00
2022-11-21T14:07:38.783Z,10.00
2022-11-21T14:10:42.833Z,9.90
2022-11-21T14:13:47.699Z,10.10
2022-11-21T14:16:57.064Z,10.00
2022-11-21T14:20:01.524Z,9.80
2022-11-21T14:23:06.651Z,9.80
2022-11-21T14:26:12.555Z,9.90
2022-11-21T14:29:29.001Z,10.00
2022-11-21T14:32:31.950Z,9.90
2022-11-21T14:35:34.227Z,9.90
2022-11-21T14:38:45.026Z,9.90
2022-11-21T14:42:03.870Z,9.60
2022-11-21T14:45:15.729Z,9.60
2022-11-21T14:48:26.558Z,9.60
2022-11-21T14:51:28.588Z,9.40
2022-11-21T14:54:34.720Z,9.30
2022-11-21T14:57:40.552Z,9.00
2022-11-21T15:01:02.342Z,8.90
2022-11-21T15:04:07.623Z,8.80
2022-11-21T15:07:27.048Z,8.60
2022-11-21T15:10:35.622Z,8.40
2022-11-21T15:13:58.428Z,8.30
2022-11-21T15:17:04.034Z,8.20
2022-11-21T15:20:11.870Z,8.20
2022-11-21T15:23:32.655Z,8.20
2022-11-21T15:26:35.615Z,8.20
2022-11-21T15:29:37.472Z,8.10
2022-11-21T15:33:18.123Z,8.00
2022-11-21T15:36:19.954Z,8.00
2022-11-21T15:39:23.321Z,7.90
2022-11-21T15:42:34.749Z,7.80
2022-11-21T15:45:36.513Z,7.60
2022-11-21T15:48:38.237Z,7.50
2022-11-21T15:52:06.244Z,7.40
2022-11-21T15:55:12.791Z,7.20
2022-11-21T15:58:16.421Z,7.20
2022-11-21T16:01:24.044Z,7.20
2022-11-21T16:04:26.500Z,7.00
2022-11-21T16:07:28.358Z,7.00
2022-11-21T16:10:30.133Z,6.90
2022-11-21T16:13:32.316Z,6.90
2022-11-21T16:16:42.975Z,6.80
2022-11-21T16:19:45.861Z,6.70
2022-11-21T16:22:48.176Z,6.70
2022-11-21T16:25:53.080Z,6.70
2022-11-21T16:28:57.401Z,6.60
2022-11-21T16:31:59.096Z,6.50
2022-11-21T16:35:00.800Z,6.40
2022-11-21T16:38:02.482Z,6.40
2022-11-21T16:41:05.305Z,6.30
2022-11-21T16:44:14.504Z,6.30
2022-11-21T16:47:16.187Z,6.20
2022-11-21T16:50:17.970Z,6.20
2022-11-21T16:53:19.619Z,6.30
2022-11-21T16:56:21.493Z,6.40
2022-11-21T16:59:23.208Z,6.30
